sensor_id;sensor_type;location;lat;lon;timestamp;P1;durP1;ratioP1;P2;durP2;ratioP2
10851;SDS011;5479;52.046;6.314;2022-11-10T00:00:24;16.17;;;4.37;;
10851;SDS011;5479;52.046;6.314;2022-11-10T00:02:52;9.67;;;4.23;;
10851;SDS011;5479;52.046;6.314;2022-11-10T00:05:21;10.47;;;4.17;;
10851;SDS011;5479;52.046;6.314;2022-11-10T00:07:48;16.10;;;4.43;;
10851;SDS011;5479;52.046;6.314;2022-11-10T00:10:16;18.07;;;5.03;;
10851;SDS011;5479;52.046;6.314;2022-11-10T00:12:46;11.50;;;4.43;;
10851;SDS011;5479;52.046;6.314;2022-11-10T00:15:13;11.80;;;4.30;;
10851;SDS011;5479;52.046;6.314;2022-11-10T00:17:59;11.60;;;4.63;;
10851;SDS011;5479;52.046;6.314;2022-11-10T00:20:28;9.67;;;4.00;;
10851;SDS011;5479;52.046;6.314;2022-11-10T00:22:56;15.60;;;4.43;;
10851;SDS011;5479;52.046;6.314;2022-11-10T00:25:25;14.57;;;4.17;;
10851;SDS011;5479;52.046;6.314;2022-11-10T00:27:56;13.53;;;4.37;;
10851;SDS011;5479;52.046;6.314;2022-11-10T00:30:24;14.17;;;4.50;;
10851;SDS011;5479;52.046;6.314;2022-11-10T00:32:52;16.17;;;5.10;;
10851;SDS011;5479;52.046;6.314;2022-11-10T00:35:23;11.00;;;4.47;;
10851;SDS011;5479;52.046;6.314;2022-11-10T00:37:51;16.83;;;4.90;;
10851;SDS011;5479;52.046;6.314;2022-11-10T00:40:18;14.43;;;4.80;;
10851;SDS011;5479;52.046;6.314;2022-11-10T00:42:46;15.00;;;5.00;;
10851;SDS011;5479;52.046;6.314;2022-11-10T00:45:36;13.07;;;4.97;;
10851;SDS011;5479;52.046;6.314;2022-11-10T00:48:06;15.23;;;4.90;;
10851;SDS011;5479;52.046;6.314;2022-11-10T00:50:34;12.53;;;4.60;;
10851;SDS011;5479;52.046;6.314;2022-11-10T00:53:02;19.73;;;5.40;;
10851;SDS011;5479;52.046;6.314;2022-11-10T00:55:30;11.50;;;5.10;;
10851;SDS011;5479;52.046;6.314;2022-11-10T00:57:58;12.73;;;4.70;;
10851;SDS011;5479;52.046;6.314;2022-11-10T01:00:26;14.73;;;5.50;;
10851;SDS011;5479;52.046;6.314;2022-11-10T01:02:55;13.77;;;5.27;;
10851;SDS011;5479;52.046;6.314;2022-11-10T01:05:23;16.70;;;5.73;;
10851;SDS011;5479;52.046;6.314;2022-11-10T01:07:51;14.93;;;5.27;;
10851;SDS011;5479;52.046;6.314;2022-11-10T01:10:19;12.30;;;5.43;;
10851;SDS011;5479;52.046;6.314;2022-11-10T01:12:47;16.50;;;5.77;;
10851;SDS011;5479;52.046;6.314;2022-11-10T01:15:18;14.07;;;5.47;;
10851;SDS011;5479;52.046;6.314;2022-11-10T01:17:46;17.83;;;6.13;;
10851;SDS011;5479;52.046;6.314;2022-11-10T01:20:17;17.17;;;5.90;;
10851;SDS011;5479;52.046;6.314;2022-11-10T01:22:46;13.70;;;5.77;;
10851;SDS011;5479;52.046;6.314;2022-11-10T01:25:14;14.20;;;5.93;;
10851;SDS011;5479;52.046;6.314;2022-11-10T01:27:42;15.03;;;5.93;;
10851;SDS011;5479;52.046;6.314;2022-11-10T01:30:12;14.17;;;5.70;;
10851;SDS011;5479;52.046;6.314;2022-11-10T01:32:40;16.47;;;5.50;;
10851;SDS011;5479;52.046;6.314;2022-11-10T01:35:08;16.37;;;6.30;;
10851;SDS011;5479;52.046;6.314;2022-11-10T01:37:38;15.00;;;5.70;;
10851;SDS011;5479;52.046;6.314;2022-11-10T01:40:07;14.33;;;5.33;;
10851;SDS011;5479;52.046;6.314;2022-11-10T01:42:43;16.43;;;5.67;;
10851;SDS011;5479;52.046;6.314;2022-11-10T01:48:09;16.63;;;5.77;;
10851;SDS011;5479;52.046;6.314;2022-11-10T01:50:41;13.10;;;5.13;;
10851;SDS011;5479;52.046;6.314;2022-11-10T01:53:13;13.13;;;5.50;;
10851;SDS011;5479;52.046;6.314;2022-11-10T01:55:45;15.40;;;5.60;;
10851;SDS011;5479;52.046;6.314;2022-11-10T01:58:15;11.83;;;4.60;;
10851;SDS011;5479;52.046;6.314;2022-11-10T02:00:45;16.33;;;5.47;;
10851;SDS011;5479;52.046;6.314;2022-11-10T02:03:15;16.60;;;5.60;;
10851;SDS011;5479;52.046;6.314;2022-11-10T02:05:48;12.43;;;5.37;;
10851;SDS011;5479;52.046;6.314;2022-11-10T02:08:18;12.93;;;5.00;;
10851;SDS011;5479;52.046;6.314;2022-11-10T02:10:49;12.50;;;5.27;;
10851;SDS011;5479;52.046;6.314;2022-11-10T02:13:17;15.77;;;5.37;;
10851;SDS011;5479;52.046;6.314;2022-11-10T02:15:47;16.17;;;5.50;;
10851;SDS011;5479;52.046;6.314;2022-11-10T02:18:15;13.33;;;5.20;;
10851;SDS011;5479;52.046;6.314;2022-11-10T02:20:44;16.57;;;5.13;;
10851;SDS011;5479;52.046;6.314;2022-11-10T02:23:14;14.73;;;5.10;;
10851;SDS011;5479;52.046;6.314;2022-11-10T02:25:57;14.37;;;5.07;;
10851;SDS011;5479;52.046;6.314;2022-11-10T02:28:25;14.00;;;5.43;;
10851;SDS011;5479;52.046;6.314;2022-11-10T02:30:54;15.10;;;5.60;;
10851;SDS011;5479;52.046;6.314;2022-11-10T02:33:22;17.93;;;4.90;;
10851;SDS011;5479;52.046;6.314;2022-11-10T02:35:51;15.33;;;5.03;;
10851;SDS011;5479;52.046;6.314;2022-11-10T02:38:19;13.80;;;5.00;;
10851;SDS011;5479;52.046;6.314;2022-11-10T02:40:47;14.03;;;5.00;;
10851;SDS011;5479;52.046;6.314;2022-11-10T02:43:16;16.17;;;5.20;;
10851;SDS011;5479;52.046;6.314;2022-11-10T02:45:45;12.77;;;5.40;;
10851;SDS011;5479;52.046;6.314;2022-11-10T02:48:14;16.33;;;6.13;;
10851;SDS011;5479;52.046;6.314;2022-11-10T02:50:42;15.07;;;5.60;;
10851;SDS011;5479;52.046;6.314;2022-11-10T02:53:12;18.00;;;5.50;;
10851;SDS011;5479;52.046;6.314;2022-11-10T02:55:40;15.27;;;5.70;;
10851;SDS011;5479;52.046;6.314;2022-11-10T02:58:08;14.43;;;5.60;;
10851;SDS011;5479;52.046;6.314;2022-11-10T03:00:37;19.90;;;6.77;;
10851;SDS011;5479;52.046;6.314;2022-11-10T03:03:05;15.63;;;5.70;;
10851;SDS011;5479;52.046;6.314;2022-11-10T03:05:33;13.37;;;5.53;;
10851;SDS011;5479;52.046;6.314;2022-11-10T03:08:01;16.60;;;5.57;;
10851;SDS011;5479;52.046;6.314;2022-11-10T03:10:31;16.27;;;5.93;;
10851;SDS011;5479;52.046;6.314;2022-11-10T03:13:00;16.23;;;6.13;;
10851;SDS011;5479;52.046;6.314;2022-11-10T03:15:29;13.23;;;5.63;;
10851;SDS011;5479;52.046;6.314;2022-11-10T03:18:01;12.90;;;6.47;;
10851;SDS011;5479;52.046;6.314;2022-11-10T03:20:30;14.43;;;5.63;;
10851;SDS011;5479;52.046;6.314;2022-11-10T03:23:01;14.87;;;5.30;;
10851;SDS011;5479;52.046;6.314;2022-11-10T03:25:32;13.53;;;5.40;;
10851;SDS011;5479;52.046;6.314;2022-11-10T03:28:00;13.20;;;5.27;;
10851;SDS011;5479;52.046;6.314;2022-11-10T03:30:28;17.10;;;6.13;;
10851;SDS011;5479;52.046;6.314;2022-11-10T03:32:56;17.37;;;6.30;;
10851;SDS011;5479;52.046;6.314;2022-11-10T03:35:24;14.00;;;5.67;;
10851;SDS011;5479;52.046;6.314;2022-11-10T03:37:52;16.63;;;6.03;;
10851;SDS011;5479;52.046;6.314;2022-11-10T03:40:20;18.07;;;6.33;;
10851;SDS011;5479;52.046;6.314;2022-11-10T03:42:50;15.17;;;6.13;;
10851;SDS011;5479;52.046;6.314;2022-11-10T03:45:17;14.30;;;5.77;;
10851;SDS011;5479;52.046;6.314;2022-11-10T03:47:45;13.33;;;5.57;;
10851;SDS011;5479;52.046;6.314;2022-11-10T03:50:15;13.53;;;5.80;;
10851;SDS011;5479;52.046;6.314;2022-11-10T03:52:45;15.43;;;5.33;;
10851;SDS011;5479;52.046;6.314;2022-11-10T03:55:14;16.57;;;6.37;;
10851;SDS011;5479;52.046;6.314;2022-11-10T03:57:45;16.30;;;5.60;;
10851;SDS011;5479;52.046;6.314;2022-11-10T04:00:13;15.03;;;5.60;;
10851;SDS011;5479;52.046;6.314;2022-11-10T04:02:42;13.97;;;5.93;;
10851;SDS011;5479;52.046;6.314;2022-11-10T04:05:10;13.07;;;6.50;;
10851;SDS011;5479;52.046;6.314;2022-11-10T04:07:55;17.53;;;5.87;;
10851;SDS011;5479;52.046;6.314;2022-11-10T04:10:42;12.87;;;6.67;;
10851;SDS011;5479;52.046;6.314;2022-11-10T04:13:11;13.57;;;5.90;;
10851;SDS011;5479;52.046;6.314;2022-11-10T04:15:58;14.47;;;5.93;;
10851;SDS011;5479;52.046;6.314;2022-11-10T04:18:27;16.97;;;5.87;;
10851;SDS011;5479;52.046;6.314;2022-11-10T04:20:56;14.70;;;6.40;;
10851;SDS011;5479;52.046;6.314;2022-11-10T04:23:26;11.83;;;5.50;;
10851;SDS011;5479;52.046;6.314;2022-11-10T04:26:01;13.80;;;6.07;;
10851;SDS011;5479;52.046;6.314;2022-11-10T04:28:49;15.17;;;6.47;;
10851;SDS011;5479;52.046;6.314;2022-11-10T04:31:21;14.67;;;6.20;;
10851;SDS011;5479;52.046;6.314;2022-11-10T04:33:51;12.83;;;6.00;;
10851;SDS011;5479;52.046;6.314;2022-11-10T04:36:20;16.70;;;6.23;;
10851;SDS011;5479;52.046;6.314;2022-11-10T04:38:49;18.20;;;5.73;;
10851;SDS011;5479;52.046;6.314;2022-11-10T04:41:17;17.70;;;6.03;;
10851;SDS011;5479;52.046;6.314;2022-11-10T04:43:45;16.67;;;5.97;;
10851;SDS011;5479;52.046;6.314;2022-11-10T04:46:17;15.10;;;6.37;;
10851;SDS011;5479;52.046;6.314;2022-11-10T04:48:49;17.50;;;6.13;;
10851;SDS011;5479;52.046;6.314;2022-11-10T04:51:18;16.03;;;6.33;;
10851;SDS011;5479;52.046;6.314;2022-11-10T04:53:47;15.03;;;5.33;;
10851;SDS011;5479;52.046;6.314;2022-11-10T04:56:15;14.70;;;6.03;;
10851;SDS011;5479;52.046;6.314;2022-11-10T04:58:44;15.93;;;5.93;;
10851;SDS011;5479;52.046;6.314;2022-11-10T05:01:14;14.80;;;6.53;;
10851;SDS011;5479;52.046;6.314;2022-11-10T05:03:45;16.83;;;6.33;;
10851;SDS011;5479;52.046;6.314;2022-11-10T05:06:14;14.87;;;5.97;;
10851;SDS011;5479;52.046;6.314;2022-11-10T05:08:43;13.70;;;5.50;;
10851;SDS011;5479;52.046;6.314;2022-11-10T05:11:12;15.87;;;6.67;;
10851;SDS011;5479;52.046;6.314;2022-11-10T05:13:41;19.73;;;6.50;;
10851;SDS011;5479;52.046;6.314;2022-11-10T05:16:09;16.60;;;5.63;;
10851;SDS011;5479;52.046;6.314;2022-11-10T05:18:38;13.27;;;5.50;;
10851;SDS011;5479;52.046;6.314;2022-11-10T05:21:08;16.30;;;6.23;;
10851;SDS011;5479;52.046;6.314;2022-11-10T05:23:35;17.17;;;6.13;;
10851;SDS011;5479;52.046;6.314;2022-11-10T05:26:10;16.37;;;6.37;;
10851;SDS011;5479;52.046;6.314;2022-11-10T05:28:39;17.73;;;6.63;;
10851;SDS011;5479;52.046;6.314;2022-11-10T05:31:09;16.67;;;6.30;;
10851;SDS011;5479;52.046;6.314;2022-11-10T05:33:37;16.67;;;6.10;;
10851;SDS011;5479;52.046;6.314;2022-11-10T05:36:08;19.40;;;5.53;;
10851;SDS011;5479;52.046;6.314;2022-11-10T05:38:36;12.37;;;5.40;;
10851;SDS011;5479;52.046;6.314;2022-11-10T05:41:05;14.33;;;5.77;;
10851;SDS011;5479;52.046;6.314;2022-11-10T05:43:33;14.27;;;5.80;;
10851;SDS011;5479;52.046;6.314;2022-11-10T05:46:01;12.53;;;5.97;;
10851;SDS011;5479;52.046;6.314;2022-11-10T05:48:29;12.80;;;5.57;;
10851;SDS011;5479;52.046;6.314;2022-11-10T05:50:57;16.17;;;5.80;;
10851;SDS011;5479;52.046;6.314;2022-11-10T05:53:26;16.73;;;5.63;;
10851;SDS011;5479;52.046;6.314;2022-11-10T05:55:55;12.80;;;4.90;;
10851;SDS011;5479;52.046;6.314;2022-11-10T05:58:23;18.33;;;5.43;;
10851;SDS011;5479;52.046;6.314;2022-11-10T06:00:50;15.20;;;5.77;;
10851;SDS011;5479;52.046;6.314;2022-11-10T06:03:19;17.57;;;5.47;;
10851;SDS011;5479;52.046;6.314;2022-11-10T06:05:47;18.43;;;5.27;;
10851;SDS011;5479;52.046;6.314;2022-11-10T06:08:14;13.63;;;5.13;;
10851;SDS011;5479;52.046;6.314;2022-11-10T06:10:44;18.67;;;5.33;;
10851;SDS011;5479;52.046;6.314;2022-11-10T06:13:12;14.10;;;5.40;;
10851;SDS011;5479;52.046;6.314;2022-11-10T06:15:40;14.83;;;5.13;;
10851;SDS011;5479;52.046;6.314;2022-11-10T06:18:08;12.17;;;5.10;;
10851;SDS011;5479;52.046;6.314;2022-11-10T06:20:37;18.00;;;5.93;;
10851;SDS011;5479;52.046;6.314;2022-11-10T06:23:05;15.80;;;5.23;;
10851;SDS011;5479;52.046;6.314;2022-11-10T06:25:36;14.10;;;4.63;;
10851;SDS011;5479;52.046;6.314;2022-11-10T06:28:07;15.77;;;4.77;;
10851;SDS011;5479;52.046;6.314;2022-11-10T06:30:36;17.30;;;5.20;;
10851;SDS011;5479;52.046;6.314;2022-11-10T06:33:05;14.20;;;5.77;;
10851;SDS011;5479;52.046;6.314;2022-11-10T06:35:33;13.77;;;5.00;;
10851;SDS011;5479;52.046;6.314;2022-11-10T06:38:01;11.47;;;4.40;;
10851;SDS011;5479;52.046;6.314;2022-11-10T06:40:31;17.67;;;5.10;;
10851;SDS011;5479;52.046;6.314;2022-11-10T06:43:00;14.67;;;5.30;;
10851;SDS011;5479;52.046;6.314;2022-11-10T06:45:29;14.73;;;5.17;;
10851;SDS011;5479;52.046;6.314;2022-11-10T06:47:58;17.53;;;6.27;;
10851;SDS011;5479;52.046;6.314;2022-11-10T06:50:26;14.93;;;5.20;;
10851;SDS011;5479;52.046;6.314;2022-11-10T06:52:54;15.23;;;5.50;;
10851;SDS011;5479;52.046;6.314;2022-11-10T06:55:23;17.73;;;5.00;;
10851;SDS011;5479;52.046;6.314;2022-11-10T06:57:52;13.50;;;4.77;;
10851;SDS011;5479;52.046;6.314;2022-11-10T07:00:20;13.13;;;4.63;;
10851;SDS011;5479;52.046;6.314;2022-11-10T07:02:58;18.40;;;5.10;;
10851;SDS011;5479;52.046;6.314;2022-11-10T07:05:27;15.93;;;6.20;;
10851;SDS011;5479;52.046;6.314;2022-11-10T07:08:00;18.87;;;5.97;;
10851;SDS011;5479;52.046;6.314;2022-11-10T07:10:28;13.70;;;4.50;;
10851;SDS011;5479;52.046;6.314;2022-11-10T07:12:56;15.10;;;5.33;;
10851;SDS011;5479;52.046;6.314;2022-11-10T07:15:24;14.23;;;4.60;;
10851;SDS011;5479;52.046;6.314;2022-11-10T07:17:52;14.50;;;5.30;;
10851;SDS011;5479;52.046;6.314;2022-11-10T07:20:22;13.27;;;5.10;;
10851;SDS011;5479;52.046;6.314;2022-11-10T07:22:55;15.97;;;5.77;;
10851;SDS011;5479;52.046;6.314;2022-11-10T07:25:23;14.67;;;5.43;;
10851;SDS011;5479;52.046;6.314;2022-11-10T07:27:52;14.93;;;5.57;;
10851;SDS011;5479;52.046;6.314;2022-11-10T07:30:20;17.33;;;5.20;;
10851;SDS011;5479;52.046;6.314;2022-11-10T07:32:56;16.57;;;5.20;;
10851;SDS011;5479;52.046;6.314;2022-11-10T07:35:26;13.17;;;4.70;;
10851;SDS011;5479;52.046;6.314;2022-11-10T07:37:55;12.43;;;4.77;;
10851;SDS011;5479;52.046;6.314;2022-11-10T07:40:23;12.63;;;4.70;;
10851;SDS011;5479;52.046;6.314;2022-11-10T07:42:51;15.77;;;5.23;;
10851;SDS011;5479;52.046;6.314;2022-11-10T07:45:19;15.53;;;4.90;;
10851;SDS011;5479;52.046;6.314;2022-11-10T07:47:47;11.03;;;4.40;;
10851;SDS011;5479;52.046;6.314;2022-11-10T07:50:16;12.03;;;4.63;;
10851;SDS011;5479;52.046;6.314;2022-11-10T07:52:45;14.63;;;4.60;;
10851;SDS011;5479;52.046;6.314;2022-11-10T07:55:13;15.57;;;4.90;;
10851;SDS011;5479;52.046;6.314;2022-11-10T07:57:44;14.90;;;3.93;;
10851;SDS011;5479;52.046;6.314;2022-11-10T08:00:13;11.30;;;4.20;;
10851;SDS011;5479;52.046;6.314;2022-11-10T08:02:42;12.40;;;3.80;;
10851;SDS011;5479;52.046;6.314;2022-11-10T08:05:10;15.87;;;4.30;;
10851;SDS011;5479;52.046;6.314;2022-11-10T08:07:39;12.40;;;4.00;;
10851;SDS011;5479;52.046;6.314;2022-11-10T08:10:09;11.03;;;4.10;;
10851;SDS011;5479;52.046;6.314;2022-11-10T08:12:37;10.30;;;4.03;;
10851;SDS011;5479;52.046;6.314;2022-11-10T08:15:05;9.37;;;4.30;;
10851;SDS011;5479;52.046;6.314;2022-11-10T08:17:34;16.93;;;4.60;;
10851;SDS011;5479;52.046;6.314;2022-11-10T08:20:01;11.43;;;4.10;;
10851;SDS011;5479;52.046;6.314;2022-11-10T08:22:30;13.20;;;4.13;;
10851;SDS011;5479;52.046;6.314;2022-11-10T08:24:57;9.37;;;4.10;;
10851;SDS011;5479;52.046;6.314;2022-11-10T08:27:27;13.87;;;4.37;;
10851;SDS011;5479;52.046;6.314;2022-11-10T08:29:55;12.90;;;4.13;;
10851;SDS011;5479;52.046;6.314;2022-11-10T08:32:23;13.63;;;4.27;;
10851;SDS011;5479;52.046;6.314;2022-11-10T08:34:51;16.33;;;4.33;;
10851;SDS011;5479;52.046;6.314;2022-11-10T08:37:19;16.90;;;4.87;;
10851;SDS011;5479;52.046;6.314;2022-11-10T08:39:47;11.97;;;4.13;;
10851;SDS011;5479;52.046;6.314;2022-11-10T08:42:14;11.83;;;4.17;;
10851;SDS011;5479;52.046;6.314;2022-11-10T08:44:44;13.90;;;4.20;;
10851;SDS011;5479;52.046;6.314;2022-11-10T08:47:12;13.30;;;4.67;;
10851;SDS011;5479;52.046;6.314;2022-11-10T08:49:41;10.87;;;4.13;;
10851;SDS011;5479;52.046;6.314;2022-11-10T08:52:09;13.47;;;4.30;;
10851;SDS011;5479;52.046;6.314;2022-11-10T08:54:38;13.07;;;4.60;;
10851;SDS011;5479;52.046;6.314;2022-11-10T08:57:08;13.87;;;4.37;;
10851;SDS011;5479;52.046;6.314;2022-11-10T08:59:40;14.47;;;4.20;;
10851;SDS011;5479;52.046;6.314;2022-11-10T09:02:10;12.67;;;3.90;;
10851;SDS011;5479;52.046;6.314;2022-11-10T09:04:38;12.07;;;3.97;;
10851;SDS011;5479;52.046;6.314;2022-11-10T09:07:06;14.10;;;3.90;;
10851;SDS011;5479;52.046;6.314;2022-11-10T09:09:34;9.97;;;3.80;;
10851;SDS011;5479;52.046;6.314;2022-11-10T09:12:02;10.57;;;3.60;;
10851;SDS011;5479;52.046;6.314;2022-11-10T09:14:31;11.30;;;3.70;;
10851;SDS011;5479;52.046;6.314;2022-11-10T09:16:59;14.20;;;4.10;;
10851;SDS011;5479;52.046;6.314;2022-11-10T09:19:29;12.47;;;4.00;;
10851;SDS011;5479;52.046;6.314;2022-11-10T09:21:57;12.37;;;4.50;;
10851;SDS011;5479;52.046;6.314;2022-11-10T09:24:24;10.87;;;3.80;;
10851;SDS011;5479;52.046;6.314;2022-11-10T09:26:53;15.23;;;4.60;;
10851;SDS011;5479;52.046;6.314;2022-11-10T09:29:21;13.90;;;3.80;;
10851;SDS011;5479;52.046;6.314;2022-11-10T09:31:51;11.17;;;3.73;;
10851;SDS011;5479;52.046;6.314;2022-11-10T09:34:19;11.30;;;4.57;;
10851;SDS011;5479;52.046;6.314;2022-11-10T09:36:48;9.77;;;3.73;;
10851;SDS011;5479;52.046;6.314;2022-11-10T09:39:16;7.60;;;3.50;;
10851;SDS011;5479;52.046;6.314;2022-11-10T09:41:44;12.50;;;4.10;;
10851;SDS011;5479;52.046;6.314;2022-11-10T09:44:14;10.52;;;3.65;;
10851;SDS011;5479;52.046;6.314;2022-11-10T09:46:46;12.02;;;3.58;;
10851;SDS011;5479;52.046;6.314;2022-11-10T09:49:22;9.55;;;3.42;;
10851;SDS011;5479;52.046;6.314;2022-11-10T09:51:58;12.13;;;3.67;;
10851;SDS011;5479;52.046;6.314;2022-11-10T09:54:32;12.05;;;3.95;;
10851;SDS011;5479;52.046;6.314;2022-11-10T09:57:06;15.65;;;3.90;;
10851;SDS011;5479;52.046;6.314;2022-11-10T09:59:38;15.90;;;4.18;;
10851;SDS011;5479;52.046;6.314;2022-11-10T10:02:12;10.98;;;4.13;;
10851;SDS011;5479;52.046;6.314;2022-11-10T10:04:54;11.57;;;4.03;;
10851;SDS011;5479;52.046;6.314;2022-11-10T10:07:46;16.77;;;4.70;;
10851;SDS011;5479;52.046;6.314;2022-11-10T10:10:25;10.13;;;3.30;;
10851;SDS011;5479;52.046;6.314;2022-11-10T10:13:04;12.00;;;3.67;;
10851;SDS011;5479;52.046;6.314;2022-11-10T10:15:49;10.35;;;3.75;;
10851;SDS011;5479;52.046;6.314;2022-11-10T10:18:31;10.80;;;3.97;;
10851;SDS011;5479;52.046;6.314;2022-11-10T10:21:11;10.82;;;3.65;;
10851;SDS011;5479;52.046;6.314;2022-11-10T10:24:00;12.10;;;3.78;;
10851;SDS011;5479;52.046;6.314;2022-11-10T10:26:28;12.70;;;4.00;;
10851;SDS011;5479;52.046;6.314;2022-11-10T10:29:01;11.40;;;3.97;;
10851;SDS011;5479;52.046;6.314;2022-11-10T10:31:41;12.05;;;4.00;;
10851;SDS011;5479;52.046;6.314;2022-11-10T10:34:16;12.13;;;4.00;;
10851;SDS011;5479;52.046;6.314;2022-11-10T10:36:46;12.93;;;4.07;;
10851;SDS011;5479;52.046;6.314;2022-11-10T10:39:16;10.85;;;4.00;;
10851;SDS011;5479;52.046;6.314;2022-11-10T10:41:51;10.13;;;3.97;;
10851;SDS011;5479;52.046;6.314;2022-11-10T10:44:19;12.90;;;4.20;;
10851;SDS011;5479;52.046;6.314;2022-11-10T10:46:48;10.98;;;3.63;;
10851;SDS011;5479;52.046;6.314;2022-11-10T10:49:19;15.45;;;4.38;;
10851;SDS011;5479;52.046;6.314;2022-11-10T10:51:48;11.63;;;4.05;;
10851;SDS011;5479;52.046;6.314;2022-11-10T10:54:29;14.82;;;4.25;;
10851;SDS011;5479;52.046;6.314;2022-11-10T10:57:02;13.02;;;3.85;;
10851;SDS011;5479;52.046;6.314;2022-11-10T10:59:33;15.32;;;4.57;;
10851;SDS011;5479;52.046;6.314;2022-11-10T11:02:01;13.57;;;4.15;;
10851;SDS011;5479;52.046;6.314;2022-11-10T11:04:31;13.05;;;3.70;;
10851;SDS011;5479;52.046;6.314;2022-11-10T11:07:01;11.00;;;3.30;;
10851;SDS011;5479;52.046;6.314;2022-11-10T11:09:39;11.43;;;3.80;;
10851;SDS011;5479;52.046;6.314;2022-11-10T11:12:10;13.57;;;3.60;;
10851;SDS011;5479;52.046;6.314;2022-11-10T11:14:39;10.88;;;3.67;;
10851;SDS011;5479;52.046;6.314;2022-11-10T11:17:11;11.40;;;3.53;;
10851;SDS011;5479;52.046;6.314;2022-11-10T11:19:40;12.23;;;3.50;;
10851;SDS011;5479;52.046;6.314;2022-11-10T11:25:17;14.75;;;3.60;;
10851;SDS011;5479;52.046;6.314;2022-11-10T11:27:57;11.57;;;3.72;;
10851;SDS011;5479;52.046;6.314;2022-11-10T11:30:37;16.38;;;3.97;;
10851;SDS011;5479;52.046;6.314;2022-11-10T11:33:31;12.50;;;3.80;;
10851;SDS011;5479;52.046;6.314;2022-11-10T11:36:08;11.77;;;3.72;;
10851;SDS011;5479;52.046;6.314;2022-11-10T11:38:46;10.73;;;3.55;;
10851;SDS011;5479;52.046;6.314;2022-11-10T11:41:23;12.52;;;3.75;;
10851;SDS011;5479;52.046;6.314;2022-11-10T11:44:07;12.10;;;3.60;;
10851;SDS011;5479;52.046;6.314;2022-11-10T11:46:52;13.60;;;3.80;;
10851;SDS011;5479;52.046;6.314;2022-11-10T11:49:48;12.93;;;3.78;;
10851;SDS011;5479;52.046;6.314;2022-11-10T11:52:26;10.50;;;3.22;;
10851;SDS011;5479;52.046;6.314;2022-11-10T11:57:52;13.52;;;3.75;;
10851;SDS011;5479;52.046;6.314;2022-11-10T12:00:33;13.40;;;4.00;;
10851;SDS011;5479;52.046;6.314;2022-11-10T12:03:28;15.98;;;3.38;;
10851;SDS011;5479;52.046;6.314;2022-11-10T12:06:09;11.38;;;3.10;;
10851;SDS011;5479;52.046;6.314;2022-11-10T12:08:55;15.98;;;3.83;;
10851;SDS011;5479;52.046;6.314;2022-11-10T12:11:31;11.35;;;3.90;;
10851;SDS011;5479;52.046;6.314;2022-11-10T12:14:13;7.72;;;2.90;;
10851;SDS011;5479;52.046;6.314;2022-11-10T12:16:50;9.90;;;3.50;;
10851;SDS011;5479;52.046;6.314;2022-11-10T12:19:29;11.70;;;3.42;;
10851;SDS011;5479;52.046;6.314;2022-11-10T12:22:04;9.20;;;3.03;;
10851;SDS011;5479;52.046;6.314;2022-11-10T12:24:48;13.60;;;3.17;;
10851;SDS011;5479;52.046;6.314;2022-11-10T12:27:27;10.52;;;3.90;;
10851;SDS011;5479;52.046;6.314;2022-11-10T12:30:03;11.50;;;3.20;;
10851;SDS011;5479;52.046;6.314;2022-11-10T12:32:36;13.10;;;3.33;;
10851;SDS011;5479;52.046;6.314;2022-11-10T12:35:10;9.90;;;3.47;;
10851;SDS011;5479;52.046;6.314;2022-11-10T12:37:42;11.83;;;3.40;;
10851;SDS011;5479;52.046;6.314;2022-11-10T12:40:14;10.40;;;2.80;;
10851;SDS011;5479;52.046;6.314;2022-11-10T12:42:46;10.27;;;3.03;;
10851;SDS011;5479;52.046;6.314;2022-11-10T12:45:23;12.30;;;3.42;;
10851;SDS011;5479;52.046;6.314;2022-11-10T12:47:54;11.80;;;3.33;;
10851;SDS011;5479;52.046;6.314;2022-11-10T12:50:27;10.77;;;3.13;;
10851;SDS011;5479;52.046;6.314;2022-11-10T12:53:08;9.47;;;3.07;;
10851;SDS011;5479;52.046;6.314;2022-11-10T12:55:41;11.13;;;3.23;;
10851;SDS011;5479;52.046;6.314;2022-11-10T12:58:11;10.43;;;3.03;;
10851;SDS011;5479;52.046;6.314;2022-11-10T13:00:42;10.00;;;3.43;;
10851;SDS011;5479;52.046;6.314;2022-11-10T13:03:24;9.10;;;3.00;;
10851;SDS011;5479;52.046;6.314;2022-11-10T13:05:56;9.70;;;3.20;;
10851;SDS011;5479;52.046;6.314;2022-11-10T13:08:30;12.53;;;2.90;;
10851;SDS011;5479;52.046;6.314;2022-11-10T13:11:00;9.40;;;3.13;;
10851;SDS011;5479;52.046;6.314;2022-11-10T13:13:45;10.53;;;3.30;;
10851;SDS011;5479;52.046;6.314;2022-11-10T13:22:29;8.80;;;3.30;;
10851;SDS011;5479;52.046;6.314;2022-11-10T13:28:06;12.32;;;2.90;;
10851;SDS011;5479;52.046;6.314;2022-11-10T13:30:36;9.15;;;2.88;;
10851;SDS011;5479;52.046;6.314;2022-11-10T13:35:59;8.05;;;2.85;;
10851;SDS011;5479;52.046;6.314;2022-11-10T13:38:37;12.15;;;3.00;;
10851;SDS011;5479;52.046;6.314;2022-11-10T13:41:20;10.40;;;2.83;;
10851;SDS011;5479;52.046;6.314;2022-11-10T13:43:50;14.93;;;3.20;;
10851;SDS011;5479;52.046;6.314;2022-11-10T13:46:20;11.17;;;2.80;;
10851;SDS011;5479;52.046;6.314;2022-11-10T13:49:11;10.73;;;3.13;;
10851;SDS011;5479;52.046;6.314;2022-11-10T13:51:53;9.07;;;2.50;;
10851;SDS011;5479;52.046;6.314;2022-11-10T13:54:47;6.40;;;2.27;;
10851;SDS011;5479;52.046;6.314;2022-11-10T13:57:27;9.77;;;2.63;;
10851;SDS011;5479;52.046;6.314;2022-11-10T13:59:58;12.87;;;2.87;;
10851;SDS011;5479;52.046;6.314;2022-11-10T14:02:47;10.77;;;2.73;;
10851;SDS011;5479;52.046;6.314;2022-11-10T14:08:35;5.77;;;2.10;;
10851;SDS011;5479;52.046;6.314;2022-11-10T14:11:12;8.47;;;3.00;;
10851;SDS011;5479;52.046;6.314;2022-11-10T14:13:46;7.97;;;2.47;;
10851;SDS011;5479;52.046;6.314;2022-11-10T14:16:19;8.20;;;2.30;;
10851;SDS011;5479;52.046;6.314;2022-11-10T14:18:51;10.70;;;2.63;;
10851;SDS011;5479;52.046;6.314;2022-11-10T14:21:26;6.87;;;2.33;;
10851;SDS011;5479;52.046;6.314;2022-11-10T14:24:02;7.10;;;2.30;;
10851;SDS011;5479;52.046;6.314;2022-11-10T14:26:39;9.57;;;2.33;;
10851;SDS011;5479;52.046;6.314;2022-11-10T14:29:30;9.23;;;2.70;;
10851;SDS011;5479;52.046;6.314;2022-11-10T14:32:00;10.10;;;2.23;;
10851;SDS011;5479;52.046;6.314;2022-11-10T14:34:31;7.70;;;2.40;;
10851;SDS011;5479;52.046;6.314;2022-11-10T14:37:11;6.07;;;2.10;;
10851;SDS011;5479;52.046;6.314;2022-11-10T14:39:43;9.83;;;2.43;;
10851;SDS011;5479;52.046;6.314;2022-11-10T14:42:12;7.90;;;2.30;;
10851;SDS011;5479;52.046;6.314;2022-11-10T14:44:42;6.90;;;2.40;;
10851;SDS011;5479;52.046;6.314;2022-11-10T14:47:13;9.67;;;2.37;;
10851;SDS011;5479;52.046;6.314;2022-11-10T14:49:42;8.47;;;2.63;;
10851;SDS011;5479;52.046;6.314;2022-11-10T14:52:17;9.47;;;2.93;;
10851;SDS011;5479;52.046;6.314;2022-11-10T14:54:47;6.70;;;2.03;;
10851;SDS011;5479;52.046;6.314;2022-11-10T14:57:16;5.53;;;2.20;;
10851;SDS011;5479;52.046;6.314;2022-11-10T14:59:45;8.80;;;2.30;;
10851;SDS011;5479;52.046;6.314;2022-11-10T15:02:14;8.23;;;2.37;;
10851;SDS011;5479;52.046;6.314;2022-11-10T15:04:44;8.20;;;2.50;;
10851;SDS011;5479;52.046;6.314;2022-11-10T15:07:16;8.53;;;2.40;;
10851;SDS011;5479;52.046;6.314;2022-11-10T15:12:41;11.47;;;2.80;;
10851;SDS011;5479;52.046;6.314;2022-11-10T15:15:19;9.93;;;2.43;;
10851;SDS011;5479;52.046;6.314;2022-11-10T15:17:49;8.73;;;2.73;;
10851;SDS011;5479;52.046;6.314;2022-11-10T15:20:25;8.23;;;2.70;;
10851;SDS011;5479;52.046;6.314;2022-11-10T15:22:57;10.57;;;4.13;;
10851;SDS011;5479;52.046;6.314;2022-11-10T15:25:31;11.87;;;3.37;;
10851;SDS011;5479;52.046;6.314;2022-11-10T15:28:03;13.00;;;5.17;;
10851;SDS011;5479;52.046;6.314;2022-11-10T15:30:46;7.83;;;3.70;;
10851;SDS011;5479;52.046;6.314;2022-11-10T15:33:18;9.00;;;4.57;;
10851;SDS011;5479;52.046;6.314;2022-11-10T15:35:52;9.10;;;3.83;;
10851;SDS011;5479;52.046;6.314;2022-11-10T15:38:23;6.77;;;3.20;;
10851;SDS011;5479;52.046;6.314;2022-11-10T15:41:08;7.80;;;3.40;;
10851;SDS011;5479;52.046;6.314;2022-11-10T15:43:39;8.57;;;3.07;;